Airfield :
LOGIN :

Register | Disclaimer

   EN    FR    IT 

 










Legend :    VFR   Marginal VFR   IFR   Intensive IFR   Very Intensive IFR
Visi :
Ceiling :
>= 8 km
>= 3000ft
5 to 8 km
1000 to 3000 ft
1500m to 5 km
500 to 1000 ft
800 to 1500m
200 to 500 ft
< 800m
< 200 ft
Symbols :   Thunderstorms  Fog  Heavy snow  Heavy precipitations  Wind > 20 kt
SIGMETs :     Misc.  Thunderstorms  Icing  Turbulence  Mountain Waves  Volcanic Ashes







- Airport Elevation : 49 ft
- IATA code : SEN
- Download approach charts


EGMC - Southend

CURRENT METAR :
  • 230420Z 20022G34KT 9999 SHRA BKN024 14/10 Q0987

EXPIRED METARs :
  • 230350Z 20021G32KT 9999 -SHRA BKN025 14/09 Q0987
  • 230320Z 20022G34KT 9999 -SHRA FEW023 SCT030 15/08 Q0987
  • 230220Z 19019G30KT 9999 -SHRA SCT040 13/06 Q0988

TAF TAF EGMC
Valid from the 23 at 03:00 until the 23 at 12:00 UTC


230159Z 2303/2312 20020G32KT 9999 SCT025
PROB30
TEMPO 2303/2306 21030G42KT 4000 +SHRA BKN014
BECMG 2306/2309 26015KT
PROB30
TEMPO 2306/2309 27018G28KT 6000 SHRA BKN012
BECMG 2309/2312 25018G28KT
No reported NOTAMs for that airfield.
1 SIGMET reported for the London FIR (EGTT) :
 
Severe turbulence
EGTT SIGMET 01 VALID 230200/230600 EGRR
EGTT LONDON FIR SEV TURB FCST SE OF LINE N5000 W00200 - N5500 E00126 SFC/FL060 MOV E 25KT NC=



MET'MAP, your aeronautical weather chart ! - Copyright ORBIFLY December 2007 - Disclaimer

ORBIFLY MET'MAP TEAM :

Programming & Development : Alexandra Zaïnal
Concept & Development : Baudouin d'Aumeries
Co-Development & Prog : Marc-Olivier Méhu
Technical & hardware support : Manuel Goepfert

Contact : metmap@orbifly.com




SOURCES & CREDITS :

   NOAA